PAVD METAR and TAF weather

Enter ICAO airport designator
Station Type Date Time Source
PAVD METAR 2020/11/28 18:56 UTC NOAA

PAVD 281856Z 06007KT 040V120 10SM FEW050 BKN065 BKN200 00/M03 A2904 RMK AO2 SLP833 T00001028


Station Type Date Time Source
PAVD Decoded METAR 2020/11/28 18:56 UTC NOAA

Valdez 2, AK, United States (PAVD) 61-08N 146-16W
Nov 28, 2020 - 01:56 PM EST / 2020.11.28 1856 UTC
Wind: from the ENE (060 degrees) at 8 MPH (7 KT) (direction variable):0
Visibility: 10 mile(s):0
Sky conditions: mostly cloudy
Temperature: 32.0 F (0.0 C)
Windchill: 24 F (-4 C):1
Dew Point: 27.0 F (-2.8 C)
Relative Humidity: 81%
Pressure (altimeter): 29.04 in. Hg (983 hPa)
ob: PAVD 281856Z 06007KT 040V120 10SM FEW050 BKN065 BKN200 00/M03 A2904 RMK AO2 SLP833 T00001028
cycle: 19

Station Type Date Time Source
PAVD TAF 2020/11/28 18:39 UTC NOAA

TAF PAVD 281736Z 2818/2918 VRB03KT P6SM FEW015 BKN060 BKN200
FM282100 VRB05KT 4SM -SN OVC015
FM291200 VRB03KT 1 1/2SM -SN BR OVC007
AMD LTD TO CLD VIS AND WIND

Example: see airport list